AirNav   Everest Fuels
 
 948 users online  

92FD Nierenberg Estate Heliport
Melbourne, Florida, USA

GOING TO MELBOURNE?


FAA INFORMATION EFFECTIVE 05 DECEMBER 2019

Location

FAA Identifier: 92FD
Lat/Long: 28-13-06.0400N 080-41-03.1930W
28-13.100667N 080-41.053217W
28.2183444,-80.6842203
(estimated)
Elevation: 32 ft. / 10 m (estimated)
Variation: 04W (1990)
From city: 10 miles N of MELBOURNE, FL
Time zone: UTC -5 (UTC -4 during Daylight Saving Time)
Zip code: 32940

Heliport Operations

Heliport use: Private use. Permission required prior to landing
Activation date: 04/1993
Control tower: no
ARTCC: JACKSONVILLE CENTER
FSS: SAINT PETERSBURG FLIGHT SERVICE STATION
Attendance: UNATNDD
Segmented circle: no

Heliport Communications

WX ASOS at MLB (7 nm S): PHONE 321-951-7575
WX AWOS-3 at COI (7 nm N): 119.025 (321-986-8864)
WX AWOS-3 at X59 (17 nm SE): 122.725
WX AWOS-3PT at TIX (19 nm N): 120.625 (321-567-6090)

Nearby radio navigation aids

VOR radial/distance  VOR name  Freq  Var
MLBr346/7.3MELBOURNE VOR/DME110.0007W
TRVr349/34.0TREASURE VORTAC117.3007W
ORLr120/39.5ORLANDO VORTAC112.2000E

Heliport Services

Runway Information

Helipad H1

Dimensions: 25 x 10 ft. / 8 x 3 m
Surface: concrete
Traffic pattern: leftleft

Heliport Ownership and Management from official FAA records

Ownership: Privately-owned
Owner: BRUCE NIERENBERG
700 JORDAN BLASS DRIVE
MELBOURNE, FL 32940
Phone (321) 863-8106
OWNER: JOHN W. WALDEN
Manager: JOHN W. WALDEN
700 JORDAN BLASS DRIVE
MELBOURNE, FL 32940
Phone (321) 863-8106

Additional Remarks

FOR CD CTC ORLANDO APCH AT 407-852-7553.

Instrument Procedures

There are no published instrument procedures at 92FD.

Some nearby airports with instrument procedures:

KCOF - Patrick Air Force Base (4 nm E)
KMLB - Melbourne International Airport (7 nm S)
KCOI - Merritt Island Airport (7 nm N)
KXMR - Cape Canaveral Air Force Station Skid Strip (16 nm NE)
KTIX - Space Coast Regional Airport (19 nm N)
 
Loc | Ops | Rwys | IFR | FBO | Links
Com | Nav | Svcs | Stats | Notes

Reliance Aviation
AirBoss

 
Area around 92FD (Nierenberg Estate Heliport)
 
Road maps at: MapQuest Bing Google
 
Aerial photo
No photo
 
Sectional chart

 
Airport distance calculator
Flying to Nierenberg Estate Heliport? Find the distance to fly.

From to 92FD

Sunrise and sunset
Times for 12-Dec-2019
 Local
(UTC-5)
 Zulu
(UTC)
Morning civil twilight06:4011:40
Sunrise07:0612:06
Sunset17:2722:27
Evening civil twilight17:5322:53

Current date and time
Zulu (UTC)  12-Dec-2019 23:41:32
Local (UTC-5)  12-Dec-2019 18:41:32
 
METAR
KCOF 
5nm E 
122312Z 07015G24KT 2 3/4SM -RA BR OVC011 22/22 A3017 RMK AO2A VIS 2 1/2 RWY21 DZE2256RAB2256 SLP221 $
KMLB 
7nm S 
122300Z 10012KT 2 1/2SM -RA BR BKN009 BKN013 OVC024 22/21 A3016 RMK AO2 P0000 T02220211 $
KXMR 
17nm NE 
122316Z AUTO 09015G21KT 3SM RA BR FEW007 21/20 A3018 RMK AO2 SLP223 $
KTIX 
19nm N 
122246Z 09013G18KT 5SM -RA OVC009 23/22 A3019
TAF
KCOF 
5nm E 
121950Z 1220/1401 10015G20KT 6000 -RA BR BKN015 OVC025 QNH3015INS TEMPO 1220/1222 09020G25KT 0800 RA BKN002 BECMG 1312/1313 16010G15KT 9000 SHRA VCTS SCT009 BKN015CB OVC025 QNH3004INS TEMPO 1315/1318 14020G25KT 1600 TSRA BR SCT007 SCT020CB BKN030 OVC035 BECMG 1323/1324 22010G15KT 9999 NSW SCT025 BKN030 QNH2996INS TX21/1220Z TN20/1309Z
KMLB 
7nm S 
121917Z 1219/1318 07012G18KT 3SM RA BR SCT010 BKN040 OVC060 TEMPO 1219/1221 1SM RA BR BKN008 OVC015 FM122100 07013G20KT 5SM -RA SCT015 BKN025 OVC050 TEMPO 1221/1224 2SM RA BR BKN010 OVC020 FM130200 10011KT P6SM VCSH SCT020 BKN040 OVC060 FM130800 13006KT P6SM FEW030 BKN060 OVC120 FM131400 17008KT P6SM SCT030 BKN050 OVC100
KTIX 
19nm N 
121742Z 1218/1318 07012KT 6SM BR VCSH SCT025 OVC050 TEMPO 1218/1221 3SM -RA BR BKN020 OVC030 FM122100 07013G20KT P6SM VCSH SCT015 BKN025 OVC050 TEMPO 1221/1224 3SM RA BR BKN010 OVC020 FM130200 10011KT P6SM VCSH SCT020 BKN040 OVC060 FM130800 14006KT P6SM FEW030 BKN060 OVC120 FM131400 19008KT P6SM SCT030 BKN050 OVC100
NOTAMs
Click for the latest NOTAMs
NOTAMs are issued by the DoD/FAA and will open in a separate window not controlled by AirNav.

 

 
 

Would you like to see your business listed on this page?

 If your business provides an interesting product or service to pilots, flight crews, aircraft, or users of the Nierenberg Estate Heliport, you should consider listing it here.  To start the listing process, click on the button below
 
Add a business
 

Other Pages about Nierenberg Estate Heliport

Update a link
 
Copyright © AirNav, LLC. All rights reserved. Privacy Policy  Contact